sensor_id;sensor_type;location;lat;lon;timestamp;P1;durP1;ratioP1;P2;durP2;ratioP2
10122;SDS011;5101;49.038;8.710;2023-06-24T00:00:00;3.90;;;3.50;;
10122;SDS011;5101;49.038;8.710;2023-06-24T00:02:26;4.18;;;3.88;;
10122;SDS011;5101;49.038;8.710;2023-06-24T00:04:52;4.35;;;3.90;;
10122;SDS011;5101;49.038;8.710;2023-06-24T00:07:17;3.72;;;3.42;;
10122;SDS011;5101;49.038;8.710;2023-06-24T00:09:44;4.25;;;3.95;;
10122;SDS011;5101;49.038;8.710;2023-06-24T00:12:09;4.07;;;3.78;;
10122;SDS011;5101;49.038;8.710;2023-06-24T00:14:35;4.00;;;3.60;;
10122;SDS011;5101;49.038;8.710;2023-06-24T00:17:02;4.25;;;3.95;;
10122;SDS011;5101;49.038;8.710;2023-06-24T00:19:27;4.40;;;4.00;;
10122;SDS011;5101;49.038;8.710;2023-06-24T00:21:53;4.53;;;4.15;;
10122;SDS011;5101;49.038;8.710;2023-06-24T00:24:19;4.38;;;4.05;;
10122;SDS011;5101;49.038;8.710;2023-06-24T00:26:46;3.90;;;3.60;;
10122;SDS011;5101;49.038;8.710;2023-06-24T00:29:12;4.65;;;4.22;;
10122;SDS011;5101;49.038;8.710;2023-06-24T00:31:38;4.30;;;4.00;;
10122;SDS011;5101;49.038;8.710;2023-06-24T00:34:03;3.95;;;3.65;;
10122;SDS011;5101;49.038;8.710;2023-06-24T00:36:29;4.30;;;3.90;;
10122;SDS011;5101;49.038;8.710;2023-06-24T00:38:56;4.07;;;3.75;;
10122;SDS011;5101;49.038;8.710;2023-06-24T00:41:29;4.55;;;4.15;;
10122;SDS011;5101;49.038;8.710;2023-06-24T00:43:55;4.28;;;3.97;;
10122;SDS011;5101;49.038;8.710;2023-06-24T00:46:22;4.47;;;4.10;;
10122;SDS011;5101;49.038;8.710;2023-06-24T00:48:50;6.18;;;4.32;;
10122;SDS011;5101;49.038;8.710;2023-06-24T00:51:27;4.60;;;4.20;;
10122;SDS011;5101;49.038;8.710;2023-06-24T00:53:55;4.70;;;4.40;;
10122;SDS011;5101;49.038;8.710;2023-06-24T00:56:21;4.65;;;4.25;;
10122;SDS011;5101;49.038;8.710;2023-06-24T00:58:50;6.45;;;4.20;;
10122;SDS011;5101;49.038;8.710;2023-06-24T01:01:17;4.53;;;3.95;;
10122;SDS011;5101;49.038;8.710;2023-06-24T01:03:44;4.35;;;4.05;;
10122;SDS011;5101;49.038;8.710;2023-06-24T01:06:10;5.20;;;4.70;;
10122;SDS011;5101;49.038;8.710;2023-06-24T01:08:36;4.55;;;4.20;;
10122;SDS011;5101;49.038;8.710;2023-06-24T01:11:02;4.50;;;4.07;;
10122;SDS011;5101;49.038;8.710;2023-06-24T01:13:28;5.32;;;3.78;;
10122;SDS011;5101;49.038;8.710;2023-06-24T01:15:53;4.28;;;3.90;;
10122;SDS011;5101;49.038;8.710;2023-06-24T01:18:29;4.40;;;4.07;;
10122;SDS011;5101;49.038;8.710;2023-06-24T01:21:09;4.45;;;4.13;;
10122;SDS011;5101;49.038;8.710;2023-06-24T01:26:29;6.20;;;4.43;;
10122;SDS011;5101;49.038;8.710;2023-06-24T01:32:20;4.60;;;4.20;;
10122;SDS011;5101;49.038;8.710;2023-06-24T01:35:16;4.57;;;4.18;;
10122;SDS011;5101;49.038;8.710;2023-06-24T01:37:47;4.68;;;4.28;;
10122;SDS011;5101;49.038;8.710;2023-06-24T01:40:28;4.90;;;4.40;;
10122;SDS011;5101;49.038;8.710;2023-06-24T01:42:59;4.80;;;4.40;;
10122;SDS011;5101;49.038;8.710;2023-06-24T01:45:26;4.82;;;4.40;;
10122;SDS011;5101;49.038;8.710;2023-06-24T01:48:04;4.25;;;3.95;;
10122;SDS011;5101;49.038;8.710;2023-06-24T01:50:43;4.55;;;4.25;;
10122;SDS011;5101;49.038;8.710;2023-06-24T01:53:12;4.70;;;4.30;;
10122;SDS011;5101;49.038;8.710;2023-06-24T01:55:40;4.60;;;3.95;;
10122;SDS011;5101;49.038;8.710;2023-06-24T01:58:07;4.60;;;4.20;;
10122;SDS011;5101;49.038;8.710;2023-06-24T02:00:35;5.43;;;4.25;;
10122;SDS011;5101;49.038;8.710;2023-06-24T02:03:02;4.63;;;4.13;;
10122;SDS011;5101;49.038;8.710;2023-06-24T02:05:30;3.97;;;3.63;;
10122;SDS011;5101;49.038;8.710;2023-06-24T02:07:57;4.85;;;4.32;;
10122;SDS011;5101;49.038;8.710;2023-06-24T02:10:24;4.93;;;3.88;;
10122;SDS011;5101;49.038;8.710;2023-06-24T02:12:51;4.78;;;4.38;;
10122;SDS011;5101;49.038;8.710;2023-06-24T02:15:18;5.10;;;4.70;;
10122;SDS011;5101;49.038;8.710;2023-06-24T02:17:46;5.13;;;4.72;;
10122;SDS011;5101;49.038;8.710;2023-06-24T02:20:15;4.90;;;4.45;;
10122;SDS011;5101;49.038;8.710;2023-06-24T02:22:42;4.82;;;4.43;;
10122;SDS011;5101;49.038;8.710;2023-06-24T02:25:10;4.80;;;4.35;;
10122;SDS011;5101;49.038;8.710;2023-06-24T02:27:36;6.72;;;4.55;;
10122;SDS011;5101;49.038;8.710;2023-06-24T02:30:03;6.25;;;4.75;;
10122;SDS011;5101;49.038;8.710;2023-06-24T02:32:30;7.43;;;4.63;;
10122;SDS011;5101;49.038;8.710;2023-06-24T02:34:56;5.07;;;4.68;;
10122;SDS011;5101;49.038;8.710;2023-06-24T02:37:24;5.03;;;4.07;;
10122;SDS011;5101;49.038;8.710;2023-06-24T02:39:49;4.55;;;4.10;;
10122;SDS011;5101;49.038;8.710;2023-06-24T02:42:15;4.82;;;4.43;;
10122;SDS011;5101;49.038;8.710;2023-06-24T02:44:41;5.13;;;4.63;;
10122;SDS011;5101;49.038;8.710;2023-06-24T02:47:07;5.28;;;4.45;;
10122;SDS011;5101;49.038;8.710;2023-06-24T02:49:35;5.40;;;4.82;;
10122;SDS011;5101;49.038;8.710;2023-06-24T02:52:03;5.05;;;4.65;;
10122;SDS011;5101;49.038;8.710;2023-06-24T02:54:30;5.28;;;4.78;;
10122;SDS011;5101;49.038;8.710;2023-06-24T02:56:56;5.25;;;4.75;;
10122;SDS011;5101;49.038;8.710;2023-06-24T02:59:23;5.20;;;4.80;;
10122;SDS011;5101;49.038;8.710;2023-06-24T03:01:50;5.78;;;4.85;;
10122;SDS011;5101;49.038;8.710;2023-06-24T03:04:17;6.03;;;4.95;;
10122;SDS011;5101;49.038;8.710;2023-06-24T03:06:43;4.97;;;4.57;;
10122;SDS011;5101;49.038;8.710;2023-06-24T03:09:10;4.68;;;4.28;;
10122;SDS011;5101;49.038;8.710;2023-06-24T03:11:42;5.50;;;5.10;;
10122;SDS011;5101;49.038;8.710;2023-06-24T03:14:08;7.28;;;5.30;;
10122;SDS011;5101;49.038;8.710;2023-06-24T03:16:34;5.53;;;4.93;;
10122;SDS011;5101;49.038;8.710;2023-06-24T03:19:00;6.20;;;5.10;;
10122;SDS011;5101;49.038;8.710;2023-06-24T03:21:26;5.65;;;5.15;;
10122;SDS011;5101;49.038;8.710;2023-06-24T03:23:53;5.53;;;4.65;;
10122;SDS011;5101;49.038;8.710;2023-06-24T03:26:19;4.72;;;4.32;;
10122;SDS011;5101;49.038;8.710;2023-06-24T03:28:45;5.28;;;4.88;;
10122;SDS011;5101;49.038;8.710;2023-06-24T03:31:10;6.53;;;5.10;;
10122;SDS011;5101;49.038;8.710;2023-06-24T03:33:36;5.40;;;4.97;;
10122;SDS011;5101;49.038;8.710;2023-06-24T03:36:02;6.28;;;5.53;;
10122;SDS011;5101;49.038;8.710;2023-06-24T03:38:27;5.43;;;4.97;;
10122;SDS011;5101;49.038;8.710;2023-06-24T03:40:53;6.82;;;5.57;;
10122;SDS011;5101;49.038;8.710;2023-06-24T03:43:19;5.60;;;5.10;;
10122;SDS011;5101;49.038;8.710;2023-06-24T03:45:45;6.10;;;5.50;;
10122;SDS011;5101;49.038;8.710;2023-06-24T03:48:10;8.30;;;5.30;;
10122;SDS011;5101;49.038;8.710;2023-06-24T03:50:36;7.55;;;4.90;;
10122;SDS011;5101;49.038;8.710;2023-06-24T03:53:02;5.55;;;5.05;;
10122;SDS011;5101;49.038;8.710;2023-06-24T03:55:29;7.38;;;5.28;;
10122;SDS011;5101;49.038;8.710;2023-06-24T03:57:54;5.95;;;5.35;;
10122;SDS011;5101;49.038;8.710;2023-06-24T04:00:20;7.28;;;5.30;;
10122;SDS011;5101;49.038;8.710;2023-06-24T04:02:46;5.70;;;4.97;;
10122;SDS011;5101;49.038;8.710;2023-06-24T04:05:11;5.85;;;4.82;;
10122;SDS011;5101;49.038;8.710;2023-06-24T04:07:37;5.60;;;4.80;;
10122;SDS011;5101;49.038;8.710;2023-06-24T04:10:04;4.93;;;4.53;;
10122;SDS011;5101;49.038;8.710;2023-06-24T04:12:36;5.47;;;4.95;;
10122;SDS011;5101;49.038;8.710;2023-06-24T04:15:05;6.13;;;5.13;;
10122;SDS011;5101;49.038;8.710;2023-06-24T04:17:32;5.70;;;5.05;;
10122;SDS011;5101;49.038;8.710;2023-06-24T04:19:58;7.45;;;5.10;;
10122;SDS011;5101;49.038;8.710;2023-06-24T04:22:24;5.57;;;5.00;;
10122;SDS011;5101;49.038;8.710;2023-06-24T04:24:50;6.07;;;4.57;;
10122;SDS011;5101;49.038;8.710;2023-06-24T04:27:15;5.57;;;5.15;;
10122;SDS011;5101;49.038;8.710;2023-06-24T04:29:41;5.55;;;5.10;;
10122;SDS011;5101;49.038;8.710;2023-06-24T04:32:06;5.90;;;5.30;;
10122;SDS011;5101;49.038;8.710;2023-06-24T04:34:32;5.38;;;4.88;;
10122;SDS011;5101;49.038;8.710;2023-06-24T04:36:58;6.93;;;4.78;;
10122;SDS011;5101;49.038;8.710;2023-06-24T04:39:23;4.97;;;4.55;;
10122;SDS011;5101;49.038;8.710;2023-06-24T04:41:49;5.47;;;4.53;;
10122;SDS011;5101;49.038;8.710;2023-06-24T04:44:14;5.18;;;4.78;;
10122;SDS011;5101;49.038;8.710;2023-06-24T04:46:40;6.03;;;5.43;;
10122;SDS011;5101;49.038;8.710;2023-06-24T04:49:05;8.48;;;5.45;;
10122;SDS011;5101;49.038;8.710;2023-06-24T04:51:31;6.05;;;5.13;;
10122;SDS011;5101;49.038;8.710;2023-06-24T04:53:57;6.10;;;5.53;;
10122;SDS011;5101;49.038;8.710;2023-06-24T04:56:23;7.55;;;5.63;;
10122;SDS011;5101;49.038;8.710;2023-06-24T04:58:49;5.95;;;5.43;;
10122;SDS011;5101;49.038;8.710;2023-06-24T05:01:15;7.10;;;5.65;;
10122;SDS011;5101;49.038;8.710;2023-06-24T05:03:40;6.03;;;4.70;;
10122;SDS011;5101;49.038;8.710;2023-06-24T05:06:06;6.95;;;5.75;;
10122;SDS011;5101;49.038;8.710;2023-06-24T05:08:31;7.07;;;5.80;;
10122;SDS011;5101;49.038;8.710;2023-06-24T05:10:57;6.00;;;5.50;;
10122;SDS011;5101;49.038;8.710;2023-06-24T05:13:22;5.50;;;5.00;;
10122;SDS011;5101;49.038;8.710;2023-06-24T05:15:48;6.05;;;4.93;;
10122;SDS011;5101;49.038;8.710;2023-06-24T05:18:14;5.80;;;5.20;;
10122;SDS011;5101;49.038;8.710;2023-06-24T05:20:39;5.47;;;4.97;;
10122;SDS011;5101;49.038;8.710;2023-06-24T05:23:05;5.68;;;5.10;;
10122;SDS011;5101;49.038;8.710;2023-06-24T05:25:30;6.85;;;5.40;;
10122;SDS011;5101;49.038;8.710;2023-06-24T05:27:56;5.53;;;5.07;;
10122;SDS011;5101;49.038;8.710;2023-06-24T05:30:22;5.15;;;4.68;;
10122;SDS011;5101;49.038;8.710;2023-06-24T05:32:48;7.07;;;5.18;;
10122;SDS011;5101;49.038;8.710;2023-06-24T05:35:13;7.25;;;5.00;;
10122;SDS011;5101;49.038;8.710;2023-06-24T05:37:39;5.35;;;4.47;;
10122;SDS011;5101;49.038;8.710;2023-06-24T05:40:04;5.15;;;4.15;;
10122;SDS011;5101;49.038;8.710;2023-06-24T05:42:31;7.57;;;4.60;;
10122;SDS011;5101;49.038;8.710;2023-06-24T05:44:57;5.18;;;4.57;;
10122;SDS011;5101;49.038;8.710;2023-06-24T05:47:22;5.30;;;4.80;;
10122;SDS011;5101;49.038;8.710;2023-06-24T05:49:48;4.93;;;4.45;;
10122;SDS011;5101;49.038;8.710;2023-06-24T05:52:13;6.95;;;4.28;;
10122;SDS011;5101;49.038;8.710;2023-06-24T05:54:39;6.85;;;4.18;;
10122;SDS011;5101;49.038;8.710;2023-06-24T05:57:04;4.57;;;3.85;;
10122;SDS011;5101;49.038;8.710;2023-06-24T05:59:31;5.35;;;4.50;;
10122;SDS011;5101;49.038;8.710;2023-06-24T06:01:57;4.22;;;3.83;;
10122;SDS011;5101;49.038;8.710;2023-06-24T06:04:22;4.85;;;4.45;;
10122;SDS011;5101;49.038;8.710;2023-06-24T06:06:48;4.30;;;4.00;;
10122;SDS011;5101;49.038;8.710;2023-06-24T06:09:14;4.18;;;3.78;;
10122;SDS011;5101;49.038;8.710;2023-06-24T06:11:39;5.22;;;3.80;;
10122;SDS011;5101;49.038;8.710;2023-06-24T06:14:05;4.50;;;4.00;;
10122;SDS011;5101;49.038;8.710;2023-06-24T06:16:30;5.53;;;3.90;;
10122;SDS011;5101;49.038;8.710;2023-06-24T06:18:56;4.07;;;3.75;;
10122;SDS011;5101;49.038;8.710;2023-06-24T06:21:21;5.10;;;3.47;;
10122;SDS011;5101;49.038;8.710;2023-06-24T06:23:47;4.10;;;3.72;;
10122;SDS011;5101;49.038;8.710;2023-06-24T06:26:12;4.13;;;3.80;;
10122;SDS011;5101;49.038;8.710;2023-06-24T06:28:38;4.40;;;3.50;;
10122;SDS011;5101;49.038;8.710;2023-06-24T06:31:03;4.28;;;3.58;;
10122;SDS011;5101;49.038;8.710;2023-06-24T06:33:29;4.70;;;3.47;;
10122;SDS011;5101;49.038;8.710;2023-06-24T06:35:54;3.45;;;3.08;;
10122;SDS011;5101;49.038;8.710;2023-06-24T06:38:20;3.78;;;3.42;;
10122;SDS011;5101;49.038;8.710;2023-06-24T06:40:45;4.03;;;3.45;;
10122;SDS011;5101;49.038;8.710;2023-06-24T06:43:11;4.03;;;3.40;;
10122;SDS011;5101;49.038;8.710;2023-06-24T06:45:37;4.82;;;3.45;;
10122;SDS011;5101;49.038;8.710;2023-06-24T06:48:02;3.78;;;3.45;;
10122;SDS011;5101;49.038;8.710;2023-06-24T06:50:32;3.58;;;3.28;;
10122;SDS011;5101;49.038;8.710;2023-06-24T06:52:58;3.83;;;3.53;;
10122;SDS011;5101;49.038;8.710;2023-06-24T06:55:24;4.60;;;3.60;;
10122;SDS011;5101;49.038;8.710;2023-06-24T06:57:49;3.17;;;2.88;;
10122;SDS011;5101;49.038;8.710;2023-06-24T07:00:15;3.08;;;2.80;;
10122;SDS011;5101;49.038;8.710;2023-06-24T07:02:41;4.47;;;3.05;;
10122;SDS011;5101;49.038;8.710;2023-06-24T07:05:07;3.50;;;3.20;;
10122;SDS011;5101;49.038;8.710;2023-06-24T07:07:34;3.20;;;3.00;;
10122;SDS011;5101;49.038;8.710;2023-06-24T07:10:02;3.80;;;3.30;;
10122;SDS011;5101;49.038;8.710;2023-06-24T07:12:28;3.28;;;3.05;;
10122;SDS011;5101;49.038;8.710;2023-06-24T07:14:53;3.80;;;3.15;;
10122;SDS011;5101;49.038;8.710;2023-06-24T07:17:19;3.90;;;3.50;;
10122;SDS011;5101;49.038;8.710;2023-06-24T07:19:44;3.40;;;3.10;;
10122;SDS011;5101;49.038;8.710;2023-06-24T07:22:10;3.45;;;3.15;;
10122;SDS011;5101;49.038;8.710;2023-06-24T07:24:35;3.17;;;2.95;;
10122;SDS011;5101;49.038;8.710;2023-06-24T07:27:01;3.08;;;2.78;;
10122;SDS011;5101;49.038;8.710;2023-06-24T07:29:26;4.55;;;2.95;;
10122;SDS011;5101;49.038;8.710;2023-06-24T07:31:52;3.90;;;2.95;;
10122;SDS011;5101;49.038;8.710;2023-06-24T07:34:17;3.83;;;2.95;;
10122;SDS011;5101;49.038;8.710;2023-06-24T07:36:43;4.32;;;2.97;;
10122;SDS011;5101;49.038;8.710;2023-06-24T07:39:08;3.17;;;2.88;;
10122;SDS011;5101;49.038;8.710;2023-06-24T07:41:34;2.92;;;2.72;;
10122;SDS011;5101;49.038;8.710;2023-06-24T07:44:00;3.08;;;2.88;;
10122;SDS011;5101;49.038;8.710;2023-06-24T07:46:26;3.17;;;2.97;;
10122;SDS011;5101;49.038;8.710;2023-06-24T07:48:52;3.63;;;3.42;;
10122;SDS011;5101;49.038;8.710;2023-06-24T07:51:18;2.95;;;2.75;;
10122;SDS011;5101;49.038;8.710;2023-06-24T07:53:44;3.75;;;2.83;;
10122;SDS011;5101;49.038;8.710;2023-06-24T07:56:09;3.05;;;2.85;;
10122;SDS011;5101;49.038;8.710;2023-06-24T07:58:35;3.05;;;2.78;;
10122;SDS011;5101;49.038;8.710;2023-06-24T08:01:02;2.95;;;2.65;;
10122;SDS011;5101;49.038;8.710;2023-06-24T08:03:28;3.30;;;2.38;;
10122;SDS011;5101;49.038;8.710;2023-06-24T08:05:54;3.58;;;2.80;;
10122;SDS011;5101;49.038;8.710;2023-06-24T08:08:21;3.58;;;2.70;;
10122;SDS011;5101;49.038;8.710;2023-06-24T08:10:47;3.47;;;2.47;;
10122;SDS011;5101;49.038;8.710;2023-06-24T08:13:13;2.80;;;2.60;;
10122;SDS011;5101;49.038;8.710;2023-06-24T08:15:39;2.97;;;2.63;;
10122;SDS011;5101;49.038;8.710;2023-06-24T08:18:04;3.03;;;2.83;;
10122;SDS011;5101;49.038;8.710;2023-06-24T08:20:30;3.10;;;2.50;;
10122;SDS011;5101;49.038;8.710;2023-06-24T08:22:55;2.75;;;2.55;;
10122;SDS011;5101;49.038;8.710;2023-06-24T08:25:21;2.70;;;2.50;;
10122;SDS011;5101;49.038;8.710;2023-06-24T08:27:46;2.75;;;2.55;;
10122;SDS011;5101;49.038;8.710;2023-06-24T08:30:12;2.40;;;2.20;;
10122;SDS011;5101;49.038;8.710;2023-06-24T08:32:41;2.35;;;2.03;;
10122;SDS011;5101;49.038;8.710;2023-06-24T08:35:07;2.72;;;2.53;;
10122;SDS011;5101;49.038;8.710;2023-06-24T08:37:34;2.85;;;2.50;;
10122;SDS011;5101;49.038;8.710;2023-06-24T08:40:01;2.28;;;2.17;;
10122;SDS011;5101;49.038;8.710;2023-06-24T08:42:26;2.35;;;2.17;;
10122;SDS011;5101;49.038;8.710;2023-06-24T08:44:52;2.70;;;2.50;;
10122;SDS011;5101;49.038;8.710;2023-06-24T08:47:18;2.53;;;2.33;;
10122;SDS011;5101;49.038;8.710;2023-06-24T08:49:45;2.50;;;2.30;;
10122;SDS011;5101;49.038;8.710;2023-06-24T08:52:16;2.40;;;2.30;;
10122;SDS011;5101;49.038;8.710;2023-06-24T08:54:43;2.65;;;2.40;;
10122;SDS011;5101;49.038;8.710;2023-06-24T08:57:11;2.33;;;2.13;;
10122;SDS011;5101;49.038;8.710;2023-06-24T08:59:40;2.70;;;2.50;;
10122;SDS011;5101;49.038;8.710;2023-06-24T09:02:06;2.95;;;2.17;;
10122;SDS011;5101;49.038;8.710;2023-06-24T09:04:32;12.20;;;2.38;;
10122;SDS011;5101;49.038;8.710;2023-06-24T09:06:58;1.90;;;1.80;;
10122;SDS011;5101;49.038;8.710;2023-06-24T09:09:24;2.15;;;2.00;;
10122;SDS011;5101;49.038;8.710;2023-06-24T09:11:56;2.47;;;2.17;;
10122;SDS011;5101;49.038;8.710;2023-06-24T09:14:23;2.38;;;2.10;;
10122;SDS011;5101;49.038;8.710;2023-06-24T09:16:53;2.47;;;2.28;;
10122;SDS011;5101;49.038;8.710;2023-06-24T09:19:24;2.50;;;2.35;;
10122;SDS011;5101;49.038;8.710;2023-06-24T09:21:54;3.30;;;2.50;;
10122;SDS011;5101;49.038;8.710;2023-06-24T09:24:32;3.10;;;2.40;;
10122;SDS011;5101;49.038;8.710;2023-06-24T09:26:59;2.05;;;1.95;;
10122;SDS011;5101;49.038;8.710;2023-06-24T09:29:25;2.38;;;2.17;;
10122;SDS011;5101;49.038;8.710;2023-06-24T09:31:54;3.47;;;2.30;;
10122;SDS011;5101;49.038;8.710;2023-06-24T09:34:24;2.60;;;2.40;;
10122;SDS011;5101;49.038;8.710;2023-06-24T09:36:51;2.65;;;2.33;;
10122;SDS011;5101;49.038;8.710;2023-06-24T09:39:18;2.53;;;2.33;;
10122;SDS011;5101;49.038;8.710;2023-06-24T09:41:49;2.53;;;2.40;;
10122;SDS011;5101;49.038;8.710;2023-06-24T09:44:16;2.65;;;2.45;;
10122;SDS011;5101;49.038;8.710;2023-06-24T09:46:44;4.22;;;2.55;;
10122;SDS011;5101;49.038;8.710;2023-06-24T09:49:09;2.85;;;2.50;;
10122;SDS011;5101;49.038;8.710;2023-06-24T09:51:39;2.63;;;2.42;;
10122;SDS011;5101;49.038;8.710;2023-06-24T09:54:08;2.30;;;2.20;;
10122;SDS011;5101;49.038;8.710;2023-06-24T09:56:35;2.35;;;2.22;;
10122;SDS011;5101;49.038;8.710;2023-06-24T09:59:04;2.10;;;2.00;;
10122;SDS011;5101;49.038;8.710;2023-06-24T10:01:31;2.42;;;2.33;;
10122;SDS011;5101;49.038;8.710;2023-06-24T10:03:57;3.22;;;2.58;;
10122;SDS011;5101;49.038;8.710;2023-06-24T10:06:24;2.35;;;2.25;;
10122;SDS011;5101;49.038;8.710;2023-06-24T10:08:53;3.33;;;2.28;;
10122;SDS011;5101;49.038;8.710;2023-06-24T10:11:18;2.22;;;2.10;;
10122;SDS011;5101;49.038;8.710;2023-06-24T10:13:44;2.17;;;2.08;;
10122;SDS011;5101;49.038;8.710;2023-06-24T10:16:10;2.30;;;2.20;;
10122;SDS011;5101;49.038;8.710;2023-06-24T10:18:39;2.40;;;2.30;;
10122;SDS011;5101;49.038;8.710;2023-06-24T10:21:06;2.33;;;2.22;;
10122;SDS011;5101;49.038;8.710;2023-06-24T10:23:33;3.33;;;2.45;;
10122;SDS011;5101;49.038;8.710;2023-06-24T10:37:22;2.45;;;2.25;;
10122;SDS011;5101;49.038;8.710;2023-06-24T10:39:55;1.88;;;1.67;;
10122;SDS011;5101;49.038;8.710;2023-06-24T10:47:33;2.05;;;1.85;;
10122;SDS011;5101;49.038;8.710;2023-06-24T10:49:59;2.25;;;2.05;;
10122;SDS011;5101;49.038;8.710;2023-06-24T10:52:25;5.63;;;2.75;;
10122;SDS011;5101;49.038;8.710;2023-06-24T10:54:51;2.28;;;2.17;;
10122;SDS011;5101;49.038;8.710;2023-06-24T10:57:24;2.20;;;2.10;;
10122;SDS011;5101;49.038;8.710;2023-06-24T10:59:55;2.38;;;2.17;;
10122;SDS011;5101;49.038;8.710;2023-06-24T11:02:21;2.45;;;2.33;;
10122;SDS011;5101;49.038;8.710;2023-06-24T11:07:18;2.50;;;2.40;;
10122;SDS011;5101;49.038;8.710;2023-06-24T11:09:48;2.58;;;2.38;;
10122;SDS011;5101;49.038;8.710;2023-06-24T11:12:15;2.33;;;2.22;;
10122;SDS011;5101;49.038;8.710;2023-06-24T11:14:41;3.50;;;2.80;;
10122;SDS011;5101;49.038;8.710;2023-06-24T11:17:07;2.13;;;2.03;;
10122;SDS011;5101;49.038;8.710;2023-06-24T11:19:33;2.40;;;2.20;;
10122;SDS011;5101;49.038;8.710;2023-06-24T11:22:03;2.65;;;2.33;;
10122;SDS011;5101;49.038;8.710;2023-06-24T11:24:29;2.33;;;2.13;;
10122;SDS011;5101;49.038;8.710;2023-06-24T11:26:55;2.30;;;2.10;;
10122;SDS011;5101;49.038;8.710;2023-06-24T11:29:21;2.10;;;1.90;;
10122;SDS011;5101;49.038;8.710;2023-06-24T11:31:48;2.40;;;2.22;;
10122;SDS011;5101;49.038;8.710;2023-06-24T11:34:14;2.83;;;2.60;;
10122;SDS011;5101;49.038;8.710;2023-06-24T11:36:40;2.17;;;2.05;;
10122;SDS011;5101;49.038;8.710;2023-06-24T11:39:05;2.83;;;2.50;;
10122;SDS011;5101;49.038;8.710;2023-06-24T11:41:31;2.58;;;2.38;;
10122;SDS011;5101;49.038;8.710;2023-06-24T11:43:59;2.75;;;1.92;;
10122;SDS011;5101;49.038;8.710;2023-06-24T11:48:51;2.05;;;1.95;;
10122;SDS011;5101;49.038;8.710;2023-06-24T11:51:16;2.40;;;2.20;;
10122;SDS011;5101;49.038;8.710;2023-06-24T11:53:43;2.00;;;1.90;;
10122;SDS011;5101;49.038;8.710;2023-06-24T11:56:10;4.15;;;2.42;;
10122;SDS011;5101;49.038;8.710;2023-06-24T11:58:36;2.72;;;2.53;;
10122;SDS011;5101;49.038;8.710;2023-06-24T12:01:02;1.90;;;1.80;;
10122;SDS011;5101;49.038;8.710;2023-06-24T12:03:28;2.30;;;2.20;;
10122;SDS011;5101;49.038;8.710;2023-06-24T12:05:54;4.88;;;2.45;;
10122;SDS011;5101;49.038;8.710;2023-06-24T12:08:20;2.47;;;2.38;;
10122;SDS011;5101;49.038;8.710;2023-06-24T12:10:47;6.60;;;2.42;;
10122;SDS011;5101;49.038;8.710;2023-06-24T12:13:13;2.38;;;2.17;;
10122;SDS011;5101;49.038;8.710;2023-06-24T12:15:39;2.15;;;2.05;;
10122;SDS011;5101;49.038;8.710;2023-06-24T12:18:05;2.28;;;2.17;;
10122;SDS011;5101;49.038;8.710;2023-06-24T12:20:31;2.00;;;1.90;;
10122;SDS011;5101;49.038;8.710;2023-06-24T12:22:57;2.42;;;2.22;;
10122;SDS011;5101;49.038;8.710;2023-06-24T12:25:23;2.45;;;2.25;;
10122;SDS011;5101;49.038;8.710;2023-06-24T12:27:49;2.38;;;1.85;;
10122;SDS011;5101;49.038;8.710;2023-06-24T12:30:15;3.33;;;2.20;;
10122;SDS011;5101;49.038;8.710;2023-06-24T12:32:45;1.98;;;1.88;;
10122;SDS011;5101;49.038;8.710;2023-06-24T12:35:11;2.30;;;2.10;;
10122;SDS011;5101;49.038;8.710;2023-06-24T12:37:37;2.53;;;2.30;;
10122;SDS011;5101;49.038;8.710;2023-06-24T12:40:03;3.63;;;2.10;;
10122;SDS011;5101;49.038;8.710;2023-06-24T12:42:29;2.13;;;1.85;;
10122;SDS011;5101;49.038;8.710;2023-06-24T12:44:55;2.45;;;2.20;;
10122;SDS011;5101;49.038;8.710;2023-06-24T12:47:21;2.08;;;1.88;;
10122;SDS011;5101;49.038;8.710;2023-06-24T12:49:47;1.88;;;1.77;;
10122;SDS011;5101;49.038;8.710;2023-06-24T12:52:13;2.13;;;1.92;;
10122;SDS011;5101;49.038;8.710;2023-06-24T12:54:38;2.10;;;2.00;;
10122;SDS011;5101;49.038;8.710;2023-06-24T12:57:04;2.00;;;1.90;;
10122;SDS011;5101;49.038;8.710;2023-06-24T12:59:30;2.15;;;1.95;;
10122;SDS011;5101;49.038;8.710;2023-06-24T13:01:56;1.77;;;1.67;;
10122;SDS011;5101;49.038;8.710;2023-06-24T13:04:21;1.92;;;1.83;;
10122;SDS011;5101;49.038;8.710;2023-06-24T13:06:49;2.00;;;1.90;;
10122;SDS011;5101;49.038;8.710;2023-06-24T13:09:15;2.25;;;2.05;;
10122;SDS011;5101;49.038;8.710;2023-06-24T13:11:41;1.98;;;1.67;;
10122;SDS011;5101;49.038;8.710;2023-06-24T13:14:07;2.70;;;2.22;;
10122;SDS011;5101;49.038;8.710;2023-06-24T13:16:34;1.88;;;1.77;;
10122;SDS011;5101;49.038;8.710;2023-06-24T13:19:01;1.92;;;1.83;;
10122;SDS011;5101;49.038;8.710;2023-06-24T13:21:26;2.40;;;2.30;;
10122;SDS011;5101;49.038;8.710;2023-06-24T13:23:52;1.90;;;1.80;;
10122;SDS011;5101;49.038;8.710;2023-06-24T13:26:17;3.30;;;1.83;;
10122;SDS011;5101;49.038;8.710;2023-06-24T13:28:43;3.40;;;1.73;;
10122;SDS011;5101;49.038;8.710;2023-06-24T13:31:08;2.78;;;1.88;;
10122;SDS011;5101;49.038;8.710;2023-06-24T13:33:34;2.00;;;1.90;;
10122;SDS011;5101;49.038;8.710;2023-06-24T13:36:00;1.90;;;1.80;;
10122;SDS011;5101;49.038;8.710;2023-06-24T13:38:25;1.90;;;1.80;;
10122;SDS011;5101;49.038;8.710;2023-06-24T13:40:51;1.80;;;1.70;;
10122;SDS011;5101;49.038;8.710;2023-06-24T13:43:17;2.05;;;1.90;;
10122;SDS011;5101;49.038;8.710;2023-06-24T13:45:42;2.00;;;1.80;;
10122;SDS011;5101;49.038;8.710;2023-06-24T13:48:08;1.90;;;1.80;;
10122;SDS011;5101;49.038;8.710;2023-06-24T13:50:33;2.35;;;2.15;;
10122;SDS011;5101;49.038;8.710;2023-06-24T13:52:59;2.00;;;1.90;;
10122;SDS011;5101;49.038;8.710;2023-06-24T13:55:24;2.05;;;1.95;;
10122;SDS011;5101;49.038;8.710;2023-06-24T13:57:50;1.80;;;1.70;;
10122;SDS011;5101;49.038;8.710;2023-06-24T14:00:15;2.95;;;1.83;;
10122;SDS011;5101;49.038;8.710;2023-06-24T14:02:41;1.90;;;1.80;;
10122;SDS011;5101;49.038;8.710;2023-06-24T14:05:07;2.17;;;1.98;;
10122;SDS011;5101;49.038;8.710;2023-06-24T14:07:33;2.55;;;1.90;;
10122;SDS011;5101;49.038;8.710;2023-06-24T14:09:59;1.80;;;1.70;;
10122;SDS011;5101;49.038;8.710;2023-06-24T14:12:24;1.80;;;1.70;;
10122;SDS011;5101;49.038;8.710;2023-06-24T14:14:50;2.65;;;1.70;;
10122;SDS011;5101;49.038;8.710;2023-06-24T14:17:16;1.70;;;1.60;;
10122;SDS011;5101;49.038;8.710;2023-06-24T14:19:42;2.85;;;1.70;;
10122;SDS011;5101;49.038;8.710;2023-06-24T14:22:07;1.85;;;1.67;;
10122;SDS011;5101;49.038;8.710;2023-06-24T14:24:33;2.58;;;1.90;;
10122;SDS011;5101;49.038;8.710;2023-06-24T14:27:00;2.50;;;2.30;;
10122;SDS011;5101;49.038;8.710;2023-06-24T14:29:25;1.88;;;1.77;;
10122;SDS011;5101;49.038;8.710;2023-06-24T14:31:52;2.25;;;1.65;;
10122;SDS011;5101;49.038;8.710;2023-06-24T14:34:17;2.22;;;1.80;;
10122;SDS011;5101;49.038;8.710;2023-06-24T14:36:43;1.95;;;1.85;;
10122;SDS011;5101;49.038;8.710;2023-06-24T14:39:12;2.22;;;2.13;;
10122;SDS011;5101;49.038;8.710;2023-06-24T14:41:39;1.65;;;1.55;;
10122;SDS011;5101;49.038;8.710;2023-06-24T14:44:04;1.77;;;1.67;;
10122;SDS011;5101;49.038;8.710;2023-06-24T14:46:30;2.05;;;1.95;;
10122;SDS011;5101;49.038;8.710;2023-06-24T14:48:55;1.80;;;1.70;;
10122;SDS011;5101;49.038;8.710;2023-06-24T14:51:21;1.75;;;1.55;;
10122;SDS011;5101;49.038;8.710;2023-06-24T14:53:48;1.75;;;1.65;;
10122;SDS011;5101;49.038;8.710;2023-06-24T14:56:14;1.65;;;1.55;;
10122;SDS011;5101;49.038;8.710;2023-06-24T14:58:39;2.17;;;2.00;;
10122;SDS011;5101;49.038;8.710;2023-06-24T15:01:05;1.90;;;1.80;;
10122;SDS011;5101;49.038;8.710;2023-06-24T15:03:30;2.30;;;1.92;;
10122;SDS011;5101;49.038;8.710;2023-06-24T15:05:56;2.08;;;1.70;;
10122;SDS011;5101;49.038;8.710;2023-06-24T15:08:21;2.35;;;2.20;;
10122;SDS011;5101;49.038;8.710;2023-06-24T15:10:47;2.15;;;2.05;;
10122;SDS011;5101;49.038;8.710;2023-06-24T15:13:12;2.10;;;1.90;;
10122;SDS011;5101;49.038;8.710;2023-06-24T15:15:38;2.05;;;1.95;;
10122;SDS011;5101;49.038;8.710;2023-06-24T15:18:03;2.53;;;2.22;;
10122;SDS011;5101;49.038;8.710;2023-06-24T15:20:30;2.55;;;2.35;;
10122;SDS011;5101;49.038;8.710;2023-06-24T15:22:56;2.20;;;2.10;;